Pittsburg, NH (03592)

7:46 PM EDT on August 31, 2016 (GMT -0400)
Hill Top View | | Change Station

Elev 1886 ft 45.06 °N, 71.33 °W | Updated 3 seconds ago

Mostly Cloudy
Mostly Cloudy
64.4 °F
Feels Like 64.4 °F
N
0.9
Wind Variable Wind from SW
Gusts 2.5 mph

Today
High -- | Low -- °F
--% Chance of Precip.
Yesterday
High -- | Low -- °F
Precip. -- in
Pressure 29.85 in
Visibility 10.0 miles
Clouds Mostly Cloudy 4400 ft
Mostly Cloudy 6000 ft
Dew Point 62 °F
Humidity 92%
Rainfall 0.07 in
Snow Depth Not available.
6:06 AM 7:23 PM
Waning Crescent, 0% visible
METAR KBML 312252Z AUTO 00000KT 10SM BKN044 BKN060 22/16 A2985 RMK AO2 SLP106 T02170161
Pressure 29.85 in
Visibility 10.0 miles
Clouds Mostly Cloudy 4400 ft
Mostly Cloudy 6000 ft
Dew Point 62 °F
Humidity 92%
Rainfall 0.07 in
Snow Depth Not available.
6:06 AM 7:23 PM
Waning Crescent, 0% visible
METAR KBML 312252Z AUTO 00000KT 10SM BKN044 BKN060 22/16 A2985 RMK AO2 SLP106 T02170161

10-Day Weather Forecast

Almanac

Astronomy

Aug. 31, 2016 Rise Set
Actual Time
Civil Twilight
Nautical Twilight
Astronomical Twilight
Moon
Length of Visible Light
Length of Day
Tomorrow will be .
, % of the Moon is Illuminated

Today's Extremes

State Highs State Lows

Community

WunderPhotos

Upload Photos

1,936,215 photos uploaded!

WunderBlog® & News

Nearby

Air Quality

  Air Quality AQ Index Pollutant
Not available.

Snow Depth

Station Depth Elevation

Earthquake Activity

City Distance Mag. Time & Date
Minimum magnitude displayed is 2.5.

Coastal Water Temperatures

Place Temperature

Stations

Nearby Weather Stations

Station Location Temp. Windchill Dew Point Humidity Wind Precip. Elev Updated Type
                   

Watches & Warnings

There are currently no watches in effect.